createdAt,value
2022-08-09T00:00:23.397Z,1.98
2022-08-09T00:02:53.175Z,1.88
2022-08-09T00:06:18.384Z,2.47
2022-08-09T00:08:12.896Z,2.20
2022-08-09T00:10:59.597Z,1.50
2022-08-09T00:13:31.769Z,2.38
2022-08-09T00:16:02.871Z,2.20
2022-08-09T00:18:34.916Z,2.28
2022-08-09T00:21:07.744Z,1.83
2022-08-09T00:23:55.965Z,2.67
2022-08-09T00:26:32.635Z,1.75
2022-08-09T00:29:03.052Z,1.88
2022-08-09T00:31:58.123Z,2.90
2022-08-09T00:34:20.852Z,1.85
2022-08-09T00:36:49.358Z,2.50
2022-08-09T00:40:12.061Z,3.22
2022-08-09T00:44:14.426Z,1.65
2022-08-09T00:44:53.777Z,1.88
2022-08-09T00:47:21.726Z,2.85
2022-08-09T00:49:56.490Z,1.75
2022-08-09T00:52:30.010Z,1.92
2022-08-09T00:55:00.881Z,1.85
2022-08-09T00:57:34.569Z,2.30
2022-08-09T01:00:21.145Z,4.45
2022-08-09T01:02:52.389Z,3.05
2022-08-09T01:05:46.403Z,1.80
2022-08-09T01:08:17.358Z,2.03
2022-08-09T01:11:04.332Z,2.08
2022-08-09T01:13:58.567Z,2.78
2022-08-09T01:16:31.464Z,1.48
2022-08-09T01:19:04.726Z,1.90
2022-08-09T01:21:50.860Z,2.63
2022-08-09T01:24:29.024Z,1.90
2022-08-09T01:27:02.960Z,1.67
2022-08-09T01:29:41.159Z,1.88
2022-08-09T01:32:43.870Z,2.13
2022-08-09T01:35:28.764Z,1.52
2022-08-09T01:38:10.006Z,2.67
2022-08-09T01:40:43.484Z,2.78
2022-08-09T01:43:13.198Z,1.77
2022-08-09T01:45:44.670Z,2.15
2022-08-09T01:48:15.454Z,1.73
2022-08-09T01:50:48.361Z,2.50
2022-08-09T01:53:19.585Z,2.38
2022-08-09T01:55:49.208Z,1.55
2022-08-09T01:58:18.728Z,4.13
2022-08-09T02:00:53.015Z,3.58
2022-08-09T02:03:22.453Z,1.60
2022-08-09T02:06:04.254Z,1.17
2022-08-09T02:08:57.073Z,1.73
2022-08-09T02:11:23.842Z,1.70
2022-08-09T02:14:07.387Z,2.22
2022-08-09T02:16:59.710Z,2.10
2022-08-09T02:19:34.886Z,4.28
2022-08-09T02:22:11.168Z,7.15
2022-08-09T02:24:39.282Z,9.10
2022-08-09T02:27:10.457Z,3.10
2022-08-09T02:29:46.097Z,1.50
2022-08-09T02:32:18.489Z,2.28
2022-08-09T02:34:55.668Z,3.90
2022-08-09T02:37:31.443Z,3.25
2022-08-09T02:40:03.884Z,1.40
2022-08-09T02:42:39.904Z,5.65
2022-08-09T02:45:14.094Z,2.42
2022-08-09T02:47:46.433Z,1.42
2022-08-09T02:50:28.916Z,2.42
2022-08-09T02:53:00.181Z,1.60
2022-08-09T02:55:46.440Z,3.63
2022-08-09T02:58:35.594Z,1.65
2022-08-09T03:01:08.291Z,1.50
2022-08-09T03:04:17.872Z,3.40
2022-08-09T03:06:29.171Z,1.85
2022-08-09T03:08:57.996Z,5.25
2022-08-09T03:12:04.408Z,2.22
2022-08-09T03:14:15.899Z,3.65
2022-08-09T03:16:47.696Z,3.08
2022-08-09T03:19:59.710Z,2.75
2022-08-09T03:22:12.126Z,2.35
2022-08-09T03:25:06.436Z,1.70
2022-08-09T03:28:26.212Z,2.08
2022-08-09T03:30:33.521Z,3.15
2022-08-09T03:33:18.464Z,2.80
2022-08-09T03:36:12.878Z,1.63
2022-08-09T03:38:37.230Z,3.28
2022-08-09T03:41:09.988Z,1.60
2022-08-09T03:43:42.713Z,1.30
2022-08-09T03:46:27.427Z,2.80
2022-08-09T03:49:04.368Z,1.70
2022-08-09T03:51:54.123Z,2.42
2022-08-09T03:54:29.251Z,1.38
2022-08-09T03:56:58.428Z,1.63
2022-08-09T03:59:27.199Z,3.25
2022-08-09T04:02:10.469Z,2.58
2022-08-09T04:04:39.645Z,3.85
2022-08-09T04:07:14.483Z,25.77
2022-08-09T04:09:50.163Z,20.98
2022-08-09T04:12:36.276Z,18.63
2022-08-09T04:15:11.585Z,17.15
2022-08-09T04:17:52.607Z,14.25
2022-08-09T04:20:26.906Z,13.23
2022-08-09T04:22:56.881Z,17.58
2022-08-09T04:25:27.081Z,23.35
2022-08-09T04:28:00.006Z,17.02
2022-08-09T04:30:31.594Z,10.73
2022-08-09T04:33:01.688Z,19.73
2022-08-09T04:35:32.890Z,9.50
2022-08-09T04:38:03.725Z,8.90
2022-08-09T04:40:45.614Z,9.15
2022-08-09T04:43:13.982Z,5.30
2022-08-09T04:45:53.519Z,4.53
2022-08-09T04:48:23.909Z,4.57
2022-08-09T04:51:02.961Z,6.60
2022-08-09T04:53:31.513Z,3.88
2022-08-09T04:55:59.947Z,1.98
2022-08-09T04:58:28.980Z,5.03
2022-08-09T05:00:57.660Z,3.00
2022-08-09T05:03:40.234Z,2.90
2022-08-09T05:06:27.408Z,1.95
2022-08-09T05:09:00.698Z,2.35
2022-08-09T05:11:30.550Z,2.00
2022-08-09T05:14:00.022Z,13.13
2022-08-09T05:16:31.548Z,2.75
2022-08-09T05:19:00.719Z,2.08
2022-08-09T05:21:46.442Z,4.00
2022-08-09T05:24:15.486Z,1.83
2022-08-09T05:26:46.246Z,2.15
2022-08-09T05:29:20.996Z,2.30
2022-08-09T05:31:56.665Z,2.45
2022-08-09T05:34:30.141Z,3.70
2022-08-09T05:37:06.286Z,6.93
2022-08-09T05:39:35.628Z,7.00
2022-08-09T05:42:06.072Z,7.18
2022-08-09T05:44:34.909Z,9.38
2022-08-09T05:47:05.780Z,2.30
2022-08-09T05:50:24.510Z,1.95
2022-08-09T05:52:24.778Z,3.63
2022-08-09T05:54:52.652Z,2.35
2022-08-09T05:57:25.149Z,3.55
2022-08-09T06:00:13.125Z,4.55
2022-08-09T06:02:46.413Z,4.30
2022-08-09T06:05:14.766Z,2.10
2022-08-09T06:08:05.613Z,5.38
2022-08-09T06:10:38.883Z,3.70
2022-08-09T06:13:12.139Z,5.78
2022-08-09T06:15:46.957Z,3.33
2022-08-09T06:18:15.803Z,2.03
2022-08-09T06:20:49.863Z,2.83
2022-08-09T06:23:24.169Z,4.35
2022-08-09T06:26:11.906Z,3.70
2022-08-09T06:28:40.103Z,4.60
2022-08-09T06:31:12.543Z,4.75
2022-08-09T06:33:42.134Z,6.20
2022-08-09T06:36:16.546Z,2.58
2022-08-09T06:38:50.130Z,2.25
2022-08-09T06:41:20.524Z,2.55
2022-08-09T06:43:48.972Z,4.88
2022-08-09T06:46:39.981Z,3.92
2022-08-09T06:49:05.065Z,5.32
2022-08-09T06:51:33.600Z,4.13
2022-08-09T06:54:12.495Z,3.25
2022-08-09T06:56:46.186Z,5.75
2022-08-09T07:00:51.343Z,2.22
2022-08-09T07:02:04.667Z,3.00
2022-08-09T07:04:33.105Z,2.53
2022-08-09T07:07:04.929Z,3.72
2022-08-09T07:09:54.874Z,3.13
2022-08-09T07:12:22.908Z,4.93
2022-08-09T07:15:53.722Z,3.20
2022-08-09T07:17:56.421Z,5.72
2022-08-09T07:20:30.914Z,3.88
2022-08-09T07:22:59.317Z,4.18
2022-08-09T07:25:29.133Z,3.25
2022-08-09T07:27:56.886Z,4.40
2022-08-09T07:30:26.433Z,4.45
2022-08-09T07:33:00.602Z,4.53
2022-08-09T07:35:30.352Z,2.70
2022-08-09T07:38:17.409Z,2.10
2022-08-09T07:41:10.143Z,6.00
2022-08-09T07:43:41.163Z,2.65
2022-08-09T07:46:19.388Z,2.30
2022-08-09T07:48:52.904Z,2.95
2022-08-09T07:52:03.365Z,3.95
2022-08-09T07:54:15.266Z,1.48
2022-08-09T07:56:49.661Z,1.70
2022-08-09T07:59:34.218Z,2.40
2022-08-09T08:02:06.882Z,2.10
2022-08-09T08:04:37.727Z,1.58
2022-08-09T08:07:14.853Z,1.50
2022-08-09T08:10:05.587Z,1.58
2022-08-09T08:12:42.445Z,2.33
2022-08-09T08:15:13.872Z,3.05
2022-08-09T08:17:53.260Z,2.15
2022-08-09T08:20:29.505Z,2.70
2022-08-09T08:23:01.467Z,4.03
2022-08-09T08:25:40.425Z,3.65
2022-08-09T08:28:14.304Z,3.30
2022-08-09T08:30:43.708Z,3.22
2022-08-09T08:33:23.710Z,3.55
2022-08-09T08:35:59.089Z,3.72
2022-08-09T08:38:29.883Z,1.38
2022-08-09T08:40:59.130Z,2.38
2022-08-09T08:43:28.255Z,3.13
2022-08-09T08:46:03.939Z,1.98
2022-08-09T08:48:51.478Z,2.92
2022-08-09T08:51:22.522Z,2.67
2022-08-09T08:54:03.236Z,2.55
2022-08-09T08:56:35.389Z,2.50
2022-08-09T08:59:20.109Z,0.95
2022-08-09T09:01:52.854Z,2.08
2022-08-09T09:04:29.763Z,2.85
2022-08-09T09:07:06.085Z,2.38
2022-08-09T09:09:58.568Z,3.80
2022-08-09T09:12:30.244Z,5.25
2022-08-09T09:15:02.032Z,2.58
2022-08-09T09:17:48.159Z,1.88
2022-08-09T09:20:17.655Z,3.53
2022-08-09T09:22:56.282Z,3.22
2022-08-09T09:26:02.078Z,1.05
2022-08-09T09:29:02.387Z,2.78
2022-08-09T09:32:05.747Z,4.28
2022-08-09T09:34:14.666Z,3.13
2022-08-09T09:36:53.246Z,3.53
2022-08-09T09:39:42.731Z,3.13
2022-08-09T09:42:23.128Z,1.95
2022-08-09T09:44:57.773Z,1.58
2022-08-09T09:47:28.773Z,1.50
2022-08-09T09:50:14.145Z,2.88
2022-08-09T09:52:53.618Z,1.90
2022-08-09T09:55:32.069Z,3.45
2022-08-09T09:58:15.771Z,2.50
2022-08-09T10:00:52.521Z,2.22
2022-08-09T10:03:57.758Z,2.00
2022-08-09T10:06:32.211Z,2.67
2022-08-09T10:09:11.923Z,2.58
2022-08-09T10:12:04.502Z,1.67
2022-08-09T10:14:39.403Z,4.07
2022-08-09T10:17:40.649Z,3.55
2022-08-09T10:20:00.744Z,2.22
2022-08-09T10:22:33.640Z,1.90
2022-08-09T10:25:11.257Z,2.05
2022-08-09T10:27:55.856Z,1.98
2022-08-09T10:33:29.950Z,1.58
2022-08-09T10:36:03.044Z,2.33
2022-08-09T10:38:43.174Z,2.17
2022-08-09T10:41:20.719Z,2.30
2022-08-09T10:43:50.507Z,3.05
2022-08-09T10:46:55.791Z,2.03
2022-08-09T10:49:49.890Z,3.47
2022-08-09T10:52:35.590Z,3.53
2022-08-09T10:55:22.829Z,1.45
2022-08-09T10:57:51.679Z,1.98
2022-08-09T11:01:10.836Z,2.80
2022-08-09T11:03:50.631Z,2.30
2022-08-09T11:06:18.792Z,6.20
2022-08-09T11:08:53.029Z,1.85
2022-08-09T11:11:22.865Z,3.45
2022-08-09T11:14:31.675Z,2.30
2022-08-09T11:17:00.067Z,3.45
2022-08-09T11:20:10.637Z,2.58
2022-08-09T11:22:59.111Z,0.85
2022-08-09T11:25:47.906Z,2.40
2022-08-09T11:28:38.908Z,1.75
2022-08-09T11:31:49.426Z,2.22
2022-08-09T11:34:29.084Z,10.73
2022-08-09T11:37:00.285Z,5.63
2022-08-09T11:39:38.002Z,2.08
2022-08-09T11:42:14.677Z,1.95
2022-08-09T11:44:48.217Z,1.90
2022-08-09T11:47:16.558Z,3.05
2022-08-09T11:50:55.897Z,4.15
2022-08-09T11:54:01.416Z,3.33
2022-08-09T11:56:41.706Z,1.98
2022-08-09T11:59:14.115Z,2.25
2022-08-09T12:02:34.776Z,1.25
2022-08-09T12:04:32.407Z,1.23
2022-08-09T12:07:08.209Z,1.48
2022-08-09T12:09:37.133Z,1.15
2022-08-09T12:12:12.360Z,2.55
2022-08-09T12:15:03.790Z,1.45
2022-08-09T12:17:43.239Z,1.65
2022-08-09T12:20:16.531Z,2.45
2022-08-09T12:22:50.690Z,0.98
2022-08-09T12:25:34.715Z,2.88
2022-08-09T12:28:58.298Z,1.45
2022-08-09T12:31:10.887Z,1.45
2022-08-09T12:34:00.755Z,1.30
2022-08-09T12:36:31.869Z,3.10
2022-08-09T12:39:02.303Z,1.85
2022-08-09T12:41:36.302Z,1.80
2022-08-09T12:44:09.857Z,1.20
2022-08-09T12:46:48.959Z,1.05
2022-08-09T12:49:18.304Z,1.40
2022-08-09T12:52:02.722Z,2.63
2022-08-09T12:54:31.275Z,1.42
2022-08-09T12:56:59.822Z,1.10
2022-08-09T12:59:39.748Z,1.17
2022-08-09T13:02:22.421Z,2.58
2022-08-09T13:05:02.594Z,4.00
2022-08-09T13:07:51.246Z,1.35
2022-08-09T13:10:18.617Z,2.75
2022-08-09T13:13:09.077Z,2.97
2022-08-09T13:15:37.481Z,1.15
2022-08-09T13:18:17.496Z,0.82
2022-08-09T13:22:34.112Z,1.35
2022-08-09T13:24:07.300Z,1.10
2022-08-09T13:26:36.770Z,2.42
2022-08-09T13:29:10.134Z,0.95
2022-08-09T13:32:15.270Z,1.90
2022-08-09T13:34:45.204Z,1.80
2022-08-09T13:37:14.989Z,1.10
2022-08-09T13:41:54.160Z,1.05
2022-08-09T13:42:50.759Z,0.90
2022-08-09T13:45:18.804Z,3.00
2022-08-09T13:47:51.229Z,4.22
2022-08-09T13:50:31.062Z,1.55
2022-08-09T13:52:59.640Z,3.58
2022-08-09T13:55:28.908Z,1.75
2022-08-09T13:57:58.486Z,1.15
2022-08-09T14:00:28.932Z,2.13
2022-08-09T14:03:03.414Z,1.00
2022-08-09T14:05:59.765Z,0.93
2022-08-09T14:08:30.282Z,0.73
2022-08-09T14:11:00.176Z,4.28
2022-08-09T14:14:23.003Z,2.10
2022-08-09T14:16:28.621Z,1.17
2022-08-09T14:18:58.184Z,1.00
2022-08-09T14:21:29.716Z,0.95
2022-08-09T14:24:01.242Z,1.15
2022-08-09T14:26:38.526Z,2.75
2022-08-09T14:30:18.339Z,1.65
2022-08-09T14:31:55.780Z,2.35
2022-08-09T14:34:30.854Z,0.60
2022-08-09T14:37:06.733Z,2.13
2022-08-09T14:39:47.418Z,0.90
2022-08-09T14:42:32.193Z,1.27
2022-08-09T14:46:40.227Z,1.30
2022-08-09T14:47:57.150Z,1.90
2022-08-09T14:50:27.780Z,1.42
2022-08-09T14:52:57.651Z,0.90
2022-08-09T14:55:25.856Z,0.90
2022-08-09T14:58:03.654Z,2.08
2022-08-09T15:00:33.510Z,2.20
2022-08-09T15:03:03.868Z,2.10
2022-08-09T15:05:31.767Z,4.30
2022-08-09T15:08:00.984Z,3.97
2022-08-09T15:10:31.690Z,3.60
2022-08-09T15:13:00.091Z,1.25
2022-08-09T15:15:29.549Z,2.17
2022-08-09T15:18:02.305Z,1.20
2022-08-09T15:21:58.159Z,1.38
2022-08-09T15:24:06.135Z,2.55
2022-08-09T15:26:09.147Z,1.70
2022-08-09T15:28:54.872Z,1.50
2022-08-09T15:31:28.480Z,2.45
2022-08-09T15:34:32.870Z,2.85
2022-08-09T15:36:56.625Z,2.00
2022-08-09T15:39:43.797Z,1.73
2022-08-09T15:42:15.215Z,1.02
2022-08-09T15:44:46.464Z,2.10
2022-08-09T15:47:22.769Z,3.53
2022-08-09T15:50:04.288Z,2.10
2022-08-09T15:52:34.691Z,1.85
2022-08-09T15:55:04.275Z,2.65
2022-08-09T15:57:35.083Z,2.78
2022-08-09T16:00:15.121Z,1.00
2022-08-09T16:02:54.245Z,3.58
2022-08-09T16:05:26.334Z,2.08
2022-08-09T16:07:54.049Z,1.27
2022-08-09T16:10:55.187Z,3.40
2022-08-09T16:13:21.047Z,1.10
2022-08-09T16:16:10.541Z,2.03
2022-08-09T16:18:45.567Z,2.47
2022-08-09T16:21:16.857Z,1.80
2022-08-09T16:23:50.920Z,1.95
2022-08-09T16:26:33.764Z,1.83
2022-08-09T16:29:10.999Z,1.75
2022-08-09T16:32:18.804Z,1.10
2022-08-09T16:34:29.813Z,1.92
2022-08-09T16:37:17.493Z,1.20
2022-08-09T16:39:54.824Z,0.90
2022-08-09T16:42:34.813Z,2.35
2022-08-09T16:45:04.526Z,1.63
2022-08-09T16:48:41.798Z,0.93
2022-08-09T16:50:31.253Z,0.77
2022-08-09T16:53:01.780Z,1.95
2022-08-09T16:55:44.125Z,1.52
2022-08-09T16:58:19.434Z,1.42
2022-08-09T17:00:49.557Z,1.88
2022-08-09T17:03:21.875Z,1.40
2022-08-09T17:06:07.196Z,2.58
2022-08-09T17:08:44.100Z,1.95
2022-08-09T17:11:40.273Z,2.03
2022-08-09T17:14:25.946Z,3.42
2022-08-09T17:16:59.464Z,1.35
2022-08-09T17:19:47.628Z,1.48
2022-08-09T17:22:16.153Z,1.70
2022-08-09T17:24:55.476Z,1.92
2022-08-09T17:27:23.933Z,4.18
2022-08-09T17:29:53.029Z,2.17
2022-08-09T17:32:34.850Z,2.13
2022-08-09T17:35:12.311Z,1.73
2022-08-09T17:38:02.349Z,5.43
2022-08-09T17:40:30.541Z,2.53
2022-08-09T17:43:03.277Z,0.90
2022-08-09T17:46:02.697Z,1.30
2022-08-09T17:48:28.449Z,1.45
2022-08-09T17:50:59.543Z,1.38
2022-08-09T17:53:43.188Z,1.73
2022-08-09T17:56:11.369Z,2.25
2022-08-09T17:58:39.080Z,2.78
2022-08-09T18:01:22.261Z,1.95
2022-08-09T18:03:50.828Z,6.32
2022-08-09T18:06:30.978Z,1.00
2022-08-09T18:09:03.697Z,2.35
2022-08-09T18:12:05.691Z,2.40
2022-08-09T18:14:21.618Z,4.25
2022-08-09T18:16:51.005Z,4.95
2022-08-09T18:20:54.792Z,3.22
2022-08-09T18:22:13.089Z,1.60
2022-08-09T18:24:45.557Z,1.52
2022-08-09T18:27:14.139Z,1.60
2022-08-09T18:30:35.288Z,1.27
2022-08-09T18:32:57.471Z,1.83
2022-08-09T18:35:47.958Z,2.22
2022-08-09T18:38:13.589Z,2.38
2022-08-09T18:40:42.901Z,1.88
2022-08-09T18:43:13.538Z,1.92
2022-08-09T18:46:49.688Z,2.63
2022-08-09T18:48:33.588Z,1.38
2022-08-09T18:51:03.871Z,4.03
2022-08-09T18:53:56.485Z,1.58
2022-08-09T18:56:28.256Z,3.30
2022-08-09T18:58:56.833Z,1.30
2022-08-09T19:01:25.441Z,2.40
2022-08-09T19:04:06.297Z,3.92
2022-08-09T19:06:38.396Z,3.20
2022-08-09T19:09:07.308Z,2.15
2022-08-09T19:11:38.176Z,3.17
2022-08-09T19:14:06.635Z,1.85
2022-08-09T19:16:36.582Z,1.50
2022-08-09T19:19:21.535Z,2.55
2022-08-09T19:22:06.811Z,2.97
2022-08-09T19:25:11.418Z,2.47
2022-08-09T19:27:23.540Z,2.85
2022-08-09T19:30:22.689Z,1.75
2022-08-09T19:32:44.068Z,4.00
2022-08-09T19:35:13.172Z,2.25
2022-08-09T19:37:56.202Z,1.98
2022-08-09T19:40:33.970Z,4.95
2022-08-09T19:43:03.787Z,3.17
2022-08-09T19:45:39.225Z,1.45
2022-08-09T19:48:11.003Z,2.47
2022-08-09T19:50:49.095Z,1.77
2022-08-09T19:53:20.637Z,4.40
2022-08-09T19:56:02.062Z,2.95
2022-08-09T19:58:33.699Z,1.67
2022-08-09T20:01:04.098Z,4.35
2022-08-09T20:04:18.428Z,3.25
2022-08-09T20:06:23.786Z,1.50
2022-08-09T20:08:56.967Z,1.45
2022-08-09T20:11:26.715Z,2.63
2022-08-09T20:13:55.122Z,5.53
2022-08-09T20:16:37.682Z,3.53
2022-08-09T20:19:49.361Z,1.55
2022-08-09T20:22:02.152Z,3.10
2022-08-09T20:24:34.204Z,4.80
2022-08-09T20:27:08.276Z,1.63
2022-08-09T20:29:38.958Z,2.80
2022-08-09T20:32:30.922Z,2.97
2022-08-09T20:34:56.257Z,3.70
2022-08-09T20:37:25.537Z,1.60
2022-08-09T20:40:18.996Z,2.80
2022-08-09T20:42:59.931Z,3.00
2022-08-09T20:45:57.474Z,4.22
2022-08-09T20:48:21.435Z,2.83
2022-08-09T20:50:55.644Z,2.00
2022-08-09T20:53:37.707Z,3.70
2022-08-09T20:56:09.301Z,2.63
2022-08-09T20:58:48.635Z,2.53
2022-08-09T21:01:34.767Z,2.88
2022-08-09T21:05:49.604Z,2.85
2022-08-09T21:06:53.609Z,4.43
2022-08-09T21:09:32.719Z,2.03
2022-08-09T21:14:42.131Z,2.78
2022-08-09T21:18:23.587Z,3.53
2022-08-09T21:20:22.995Z,2.92
2022-08-09T21:22:54.300Z,1.55
2022-08-09T21:25:43.832Z,3.25
2022-08-09T21:28:22.030Z,1.88
2022-08-09T21:31:17.636Z,2.20
2022-08-09T21:33:50.669Z,2.28
2022-08-09T21:36:20.974Z,1.50
2022-08-09T21:38:57.273Z,3.85
2022-08-09T21:42:05.006Z,1.20
2022-08-09T21:44:33.307Z,1.40
2022-08-09T21:47:04.623Z,1.63
2022-08-09T21:49:39.197Z,2.00
2022-08-09T21:52:16.314Z,4.00
2022-08-09T21:54:49.714Z,4.00
2022-08-09T21:57:37.866Z,1.50
2022-08-09T22:00:12.931Z,2.85
2022-08-09T22:02:42.908Z,1.80
2022-08-09T22:05:22.489Z,1.75
2022-08-09T22:07:53.191Z,1.40
2022-08-09T22:10:24.022Z,1.38
2022-08-09T22:12:53.544Z,2.33
2022-08-09T22:15:23.529Z,1.38
2022-08-09T22:18:04.846Z,4.80
2022-08-09T22:20:40.216Z,2.70
2022-08-09T22:23:10.551Z,2.00
2022-08-09T22:26:08.562Z,1.42
2022-08-09T22:28:33.222Z,2.33
2022-08-09T22:31:02.948Z,3.08
2022-08-09T22:33:42.637Z,2.67
2022-08-09T22:36:19.160Z,4.45
2022-08-09T22:38:48.348Z,3.88
2022-08-09T22:41:16.199Z,2.90
2022-08-09T22:44:00.676Z,1.83
2022-08-09T22:48:10.696Z,1.60
2022-08-09T22:49:18.463Z,1.50
2022-08-09T22:51:49.393Z,1.92
2022-08-09T22:54:27.113Z,2.38
2022-08-09T22:56:57.019Z,1.70
2022-08-09T22:59:56.774Z,2.40
2022-08-09T23:02:20.377Z,1.98
2022-08-09T23:04:53.701Z,2.65
2022-08-09T23:08:22.959Z,2.92
2022-08-09T23:10:29.756Z,3.63
2022-08-09T23:12:57.597Z,2.05
2022-08-09T23:15:26.921Z,1.50
2022-08-09T23:17:55.043Z,2.50
2022-08-09T23:20:22.925Z,7.93
2022-08-09T23:22:50.661Z,2.00
2022-08-09T23:25:18.529Z,2.53
2022-08-09T23:27:59.650Z,2.25
2022-08-09T23:30:35.313Z,1.83
2022-08-09T23:33:03.008Z,2.45
2022-08-09T23:35:30.822Z,3.00
2022-08-09T23:38:18.798Z,3.63
2022-08-09T23:40:46.676Z,1.52
2022-08-09T23:43:14.408Z,2.67
2022-08-09T23:45:43.531Z,2.10
2022-08-09T23:48:13.619Z,1.27
2022-08-09T23:50:42.034Z,3.58
2022-08-09T23:53:09.782Z,1.48
2022-08-09T23:55:39.490Z,2.78
2022-08-09T23:58:27.481Z,2.13
